Time;durP1;ratioP1;P1;durP2;ratioP2;P2;SDS_P1;SDS_P2;PMS_P1;PMS_P2;Temp;Humidity;BMP_temperature;BMP_pressure;BME280_temperature;BME280_humidity;BME280_pressure;Samples;Min_cycle;Max_cycle;Signal;HPM_P1;HPM_P2
2021/06/20 00:00:23;;;;;;;1.50;1.40;;;;;;;25.75;56.69;98178.66;5109061;28;40566;-74
2021/06/20 00:02:52;;;;;;;1.73;1.20;;;;;;;25.49;56.27;98120.84;5109952;28;40675;-76
2021/06/20 00:05:24;;;;;;;1.30;1.23;;;;;;;25.85;56.44;98178.25;5109996;27;43411;-77
2021/06/20 00:07:53;;;;;;;1.83;1.63;;;;;;;25.83;56.25;98164.06;5110497;27;42968;-76
2021/06/20 00:10:23;;;;;;;1.10;1.10;;;;;;;25.82;56.47;98153.44;5108191;28;39764;-74
2021/06/20 00:12:52;;;;;;;1.43;1.33;;;;;;;25.76;56.52;98153.22;5108374;28;41860;-74
2021/06/20 00:15:21;;;;;;;1.53;1.43;;;;;;;25.69;57.11;98155.09;5109574;27;42641;-76
2021/06/20 00:17:50;;;;;;;1.73;1.63;;;;;;;25.63;56.79;98146.97;5109215;28;42298;-74
2021/06/20 00:20:20;;;;;;;2.27;1.63;;;;;;;25.57;56.90;98142.34;5109545;28;39863;-74
2021/06/20 00:22:48;;;;;;;3.63;2.67;;;;;;;25.51;58.06;98129.63;5110084;27;45525;-74
2021/06/20 00:25:17;;;;;;;3.03;2.40;;;;;;;25.46;58.23;98127.56;5108111;28;43425;-76
2021/06/20 00:27:45;;;;;;;2.10;2.00;;;;;;;25.41;58.50;98130.03;5108644;28;42977;-75
2021/06/20 00:30:16;;;;;;;2.80;2.57;;;;;;;25.38;58.51;98134.00;5108792;28;40512;-76
2021/06/20 00:32:45;;;;;;;2.50;1.93;;;;;;;25.35;58.45;98131.69;5110102;27;42537;-75
2021/06/20 00:35:13;;;;;;;1.90;1.70;;;;;;;25.31;58.27;98135.88;5110271;27;43075;-75
2021/06/20 00:37:41;;;;;;;4.53;2.63;;;;;;;25.27;58.65;98131.06;5117785;27;42277;-74
2021/06/20 00:40:09;;;;;;;2.30;2.10;;;;;;;25.23;58.39;98121.66;5113155;27;39896;-75
2021/06/20 00:42:39;;;;;;;2.37;2.17;;;;;;;25.19;58.25;98121.28;5125050;27;42177;-76
2021/06/20 00:45:08;;;;;;;2.53;2.33;;;;;;;25.16;58.47;98121.66;5124736;27;42621;-73
2021/06/20 00:47:36;;;;;;;1.70;1.60;;;;;;;25.15;58.62;98125.41;5109003;28;42169;-74
2021/06/20 00:50:06;;;;;;;5.87;2.33;;;;;;;25.12;59.00;98117.69;5108115;28;38631;-75
2021/06/20 00:52:34;;;;;;;2.03;1.93;;;;;;;25.10;58.90;98121.69;5110158;28;20237;-75
2021/06/20 00:55:03;;;;;;;2.43;2.03;;;;;;;25.04;59.65;98123.31;5125045;27;43556;-76
2021/06/20 00:57:33;;;;;;;2.00;1.90;;;;;;;25.00;59.09;98124.75;5110234;27;42342;-75
2021/06/20 01:00:04;;;;;;;2.27;2.07;;;;;;;24.98;59.20;98132.25;5110222;27;40380;-74
2021/06/20 01:02:31;;;;;;;2.17;1.97;;;;;;;24.93;59.17;98137.47;5124559;27;41950;-72
2021/06/20 01:05:01;;;;;;;3.40;2.30;;;;;;;24.91;59.21;98128.69;5092057;28;41959;-74
2021/06/20 01:07:30;;;;;;;2.93;2.20;;;;;;;24.88;59.40;98124.50;5107898;28;42192;-74
2021/06/20 01:09:57;;;;;;;1.90;1.80;;;;;;;24.87;59.62;98138.25;5108726;27;41305;-73
2021/06/20 01:12:25;;;;;;;2.27;1.93;;;;;;;24.85;59.74;98129.50;5107993;28;40655;-74
2021/06/20 01:14:53;;;;;;;1.60;1.50;;;;;;;24.84;59.63;98128.69;5092132;28;41402;-72
2021/06/20 01:17:22;;;;;;;2.17;1.80;;;;;;;24.76;59.34;98125.28;5125213;27;42476;-73
2021/06/20 01:19:50;;;;;;;1.93;1.80;;;;;;;24.79;59.24;98141.97;5107623;28;38923;-75
2021/06/20 01:22:22;;;;;;;1.60;1.50;;;;;;;24.78;59.01;98144.88;5108608;28;40856;-73
2021/06/20 01:24:52;;;;;;;2.13;2.00;;;;;;;24.73;59.28;98147.38;5107410;28;42759;-74
2021/06/20 01:27:20;;;;;;;2.00;1.90;;;;;;;24.74;59.36;98139.03;5108046;28;42019;-73
2021/06/20 01:29:48;;;;;;;2.07;1.97;;;;;;;24.75;59.33;98145.28;5108792;27;39824;-72
2021/06/20 01:32:18;;;;;;;1.20;1.10;;;;;;;24.74;59.01;98143.59;5108547;27;42433;-75
2021/06/20 01:34:47;;;;;;;3.27;2.20;;;;;;;24.76;59.63;98146.97;5108475;27;42198;-72
2021/06/20 01:37:16;;;;;;;2.30;2.10;;;;;;;24.75;59.35;98148.00;5107598;28;42020;-74
2021/06/20 01:39:46;;;;;;;1.93;1.83;;;;;;;24.72;60.15;98146.56;5108960;27;39885;-72
2021/06/20 01:42:15;;;;;;;2.53;2.33;;;;;;;24.68;59.74;98150.69;5108691;27;42702;-73
2021/06/20 01:44:51;;;;;;;3.03;2.40;;;;;;;24.65;60.11;98151.09;5108781;27;42623;-76
2021/06/20 01:47:19;;;;;;;2.40;2.20;;;;;;;24.67;59.87;98167.97;5090906;28;41525;-76
2021/06/20 01:49:47;;;;;;;1.97;1.87;;;;;;;24.66;59.90;98161.72;5109109;27;39977;-74
2021/06/20 01:52:18;;;;;;;2.30;2.10;;;;;;;24.66;59.64;98152.75;5107490;28;42335;-75
2021/06/20 01:54:51;;;;;;;1.70;1.60;;;;;;;24.67;60.02;98155.28;5107467;28;42814;-74
2021/06/20 01:57:22;;;;;;;1.73;1.63;;;;;;;24.69;59.91;98146.94;5108399;27;42168;-75
2021/06/20 01:59:50;;;;;;;1.93;1.80;;;;;;;24.74;59.79;98154.44;5109150;27;40746;-74
2021/06/20 02:02:18;;;;;;;2.20;1.87;;;;;;;24.73;60.49;98147.38;5090816;28;41617;-75
2021/06/20 02:04:47;;;;;;;1.50;1.40;;;;;;;24.79;59.87;98155.53;5108452;27;42510;-77
2021/06/20 02:07:15;;;;;;;2.10;1.90;;;;;;;24.81;60.30;98149.91;5107148;28;41948;-76
2021/06/20 02:09:43;;;;;;;2.10;1.90;;;;;;;24.84;60.17;98149.50;5108110;28;39719;-76
2021/06/20 02:12:14;;;;;;;2.43;1.90;;;;;;;24.86;59.86;98159.06;5107513;28;41393;-76
2021/06/20 02:14:42;;;;;;;2.30;2.10;;;;;;;24.90;59.87;98154.09;5106908;27;42608;-75
2021/06/20 02:17:21;;;;;;;2.43;2.23;;;;;;;24.93;59.58;98161.84;5112105;27;42988;-72
2021/06/20 02:19:50;;;;;;;1.77;1.67;;;;;;;24.95;59.73;98157.06;5111046;28;39041;-73
2021/06/20 02:22:18;;;;;;;2.33;1.20;;;;;;;24.95;59.55;98157.91;5112266;27;41481;-75
2021/06/20 02:24:46;;;;;;;1.97;1.83;;;;;;;24.95;60.63;98151.66;5110974;27;42526;-75
2021/06/20 02:27:16;;;;;;;1.70;1.53;;;;;;;24.89;60.36;98153.25;5110489;28;42319;-75
2021/06/20 02:29:46;;;;;;;1.90;1.80;;;;;;;24.91;60.21;98172.00;5112068;27;39813;-75
2021/06/20 02:32:13;;;;;;;1.77;1.67;;;;;;;24.88;60.31;98169.72;5093975;28;40937;-76
2021/06/20 02:34:43;;;;;;;2.40;2.20;;;;;;;24.88;60.08;98172.41;5110520;28;42737;-76
2021/06/20 02:37:11;;;;;;;2.30;2.10;;;;;;;24.88;60.05;98183.25;5112217;27;43379;-74
2021/06/20 02:39:40;;;;;;;1.63;1.53;;;;;;;24.88;60.42;98183.25;5111543;27;39259;-74
2021/06/20 02:42:09;;;;;;;2.03;1.83;;;;;;;24.87;60.25;98187.00;5111914;27;41869;-75
2021/06/20 02:44:38;;;;;;;2.27;1.70;;;;;;;24.86;60.33;98188.03;5111948;27;42731;-76
2021/06/20 02:47:08;;;;;;;2.13;1.87;;;;;;;24.85;60.96;98191.81;5109778;28;42522;-75
2021/06/20 02:49:38;;;;;;;2.60;2.33;;;;;;;24.83;60.52;98199.28;5111357;28;40064;-76
2021/06/20 02:52:08;;;;;;;2.03;1.93;;;;;;;24.84;60.62;98201.81;5111619;27;41493;-74
2021/06/20 02:54:36;;;;;;;2.00;1.83;;;;;;;24.89;59.93;98206.59;5110673;28;42628;-77
2021/06/20 02:57:06;;;;;;;1.87;1.77;;;;;;;24.82;59.75;98194.91;5112540;27;41970;-74
2021/06/20 02:59:34;;;;;;;2.40;1.97;;;;;;;24.93;59.37;98213.31;5112288;27;39281;-74
2021/06/20 03:02:03;;;;;;;2.50;2.30;;;;;;;24.95;59.71;98211.25;5110642;28;41201;-73
2021/06/20 03:04:31;;;;;;;2.00;1.90;;;;;;;24.96;59.67;98215.63;5108991;28;43232;-76
2021/06/20 03:06:59;;;;;;;1.80;1.70;;;;;;;24.97;59.52;98212.69;5110755;28;43002;-75
2021/06/20 03:09:26;;;;;;;2.50;2.30;;;;;;;25.01;59.55;98215.84;5110548;27;39880;-75
2021/06/20 03:11:54;;;;;;;1.93;1.83;;;;;;;24.97;59.44;98204.56;5111356;27;42493;-75
2021/06/20 03:14:22;;;;;;;2.37;2.13;;;;;;;25.00;59.80;98219.59;5110262;27;42663;-75
2021/06/20 03:16:50;;;;;;;2.50;2.10;;;;;;;25.02;59.41;98222.94;5109589;28;42260;-74
2021/06/20 03:19:19;;;;;;;2.13;1.93;;;;;;;25.02;58.97;98233.78;5112076;27;39861;-74
2021/06/20 03:21:47;;;;;;;1.90;1.80;;;;;;;25.03;59.08;98236.28;5111579;27;42076;-74
2021/06/20 03:24:15;;;;;;;2.07;1.87;;;;;;;25.04;59.22;98231.69;5109696;28;41946;-76
2021/06/20 03:26:43;;;;;;;2.43;2.23;;;;;;;25.05;58.77;98227.94;5109269;27;42038;-74
2021/06/20 03:29:11;;;;;;;1.97;1.80;;;;;;;25.07;58.60;98247.56;5109308;28;39363;-75
2021/06/20 03:31:39;;;;;;;4.00;2.93;;;;;;;25.07;58.57;98244.84;5111397;27;41451;-75
2021/06/20 03:34:07;;;;;;;2.80;2.60;;;;;;;25.11;58.64;98242.53;5110607;27;42524;-74
2021/06/20 03:36:37;;;;;;;1.97;1.87;;;;;;;25.15;58.63;98250.06;5109606;28;42255;-76
2021/06/20 03:39:06;;;;;;;2.20;2.00;;;;;;;25.16;58.51;98246.31;5110454;27;41615;-74
2021/06/20 03:41:34;;;;;;;2.00;1.80;;;;;;;25.24;58.16;98259.69;5110863;27;41677;-76
2021/06/20 03:44:01;;;;;;;1.93;1.77;;;;;;;25.30;58.46;98256.19;5123485;27;42675;-77
2021/06/20 03:46:30;;;;;;;2.53;1.97;;;;;;;25.35;58.35;98267.22;5131268;27;42307;-74
2021/06/20 03:48:58;;;;;;;2.73;2.10;;;;;;;25.42;58.33;98267.25;5131405;27;39912;-76
2021/06/20 03:51:25;;;;;;;2.03;1.93;;;;;;;25.47;58.13;98258.53;5129713;27;42137;-74
2021/06/20 03:53:54;;;;;;;2.33;2.13;;;;;;;25.51;58.47;98259.75;5130607;27;42503;-76
2021/06/20 03:56:22;;;;;;;1.70;1.60;;;;;;;25.56;58.07;98274.38;5130400;27;43042;-74
2021/06/20 03:58:50;;;;;;;2.43;2.23;;;;;;;25.61;58.24;98271.06;5130669;27;39954;-75
2021/06/20 04:01:18;;;;;;;2.23;2.03;;;;;;;25.68;57.98;98272.78;5129290;27;41603;-76
2021/06/20 04:03:46;;;;;;;1.77;1.67;;;;;;;25.75;57.75;98272.78;5129908;27;42423;-74
2021/06/20 04:06:14;;;;;;;2.23;2.03;;;;;;;25.75;57.91;98264.63;5130452;27;42282;-77
2021/06/20 04:08:42;;;;;;;2.83;2.10;;;;;;;25.83;57.69;98264.44;5112726;27;39986;-76
2021/06/20 04:11:11;;;;;;;2.50;2.23;;;;;;;25.88;57.67;98270.06;5130211;27;41442;-77
2021/06/20 04:13:38;;;;;;;2.20;1.80;;;;;;;25.94;58.00;98266.53;5129044;27;43399;-75
2021/06/20 04:16:06;;;;;;;2.90;2.70;;;;;;;25.98;57.65;98273.19;5129823;27;41924;-75
2021/06/20 04:18:34;;;;;;;2.03;1.93;;;;;;;26.03;57.67;98276.13;5129327;27;40399;-78
2021/06/20 04:21:02;;;;;;;2.20;2.00;;;;;;;26.11;57.35;98289.50;5109687;27;41378;-78
2021/06/20 04:23:30;;;;;;;2.13;1.93;;;;;;;26.16;57.42;98279.91;5109711;28;43209;-74
2021/06/20 04:25:58;;;;;;;2.30;2.10;;;;;;;26.24;56.94;98282.38;5108884;28;42133;-76
2021/06/20 04:28:27;;;;;;;2.03;1.63;;;;;;;26.30;56.98;98287.03;5110257;27;40956;-75
2021/06/20 04:30:57;;;;;;;2.30;2.10;;;;;;;26.34;56.68;98280.94;5109389;28;40838;-78
2021/06/20 04:33:25;;;;;;;2.27;2.03;;;;;;;26.36;56.85;98276.16;5109152;28;41705;-78
2021/06/20 04:35:53;;;;;;;2.10;1.90;;;;;;;26.45;56.46;98284.94;5108941;28;42179;-77
2021/06/20 04:38:21;;;;;;;2.60;2.40;;;;;;;26.46;56.41;98281.13;5109572;27;39935;-75
2021/06/20 04:40:50;;;;;;;2.73;2.37;;;;;;;26.49;56.50;98288.88;5108338;28;41539;-79
2021/06/20 04:43:36;;;;;;;1.70;1.60;;;;;;;26.51;56.32;98286.78;5108206;28;41851;-76
2021/06/20 04:46:20;;;;;;;2.83;2.30;;;;;;;26.48;56.25;98298.06;5109679;27;42841;-77
2021/06/20 04:48:48;;;;;;;2.03;1.37;;;;;;;26.45;56.37;98301.22;5109234;28;40097;-77
2021/06/20 04:51:16;;;;;;;2.23;2.03;;;;;;;26.44;56.44;98303.09;5107733;28;41659;-78
2021/06/20 04:53:44;;;;;;;1.90;1.50;;;;;;;26.43;56.08;98308.75;5109212;28;42643;-76
2021/06/20 04:56:12;;;;;;;2.37;2.07;;;;;;;26.37;56.12;98307.69;5109392;27;42082;-79
2021/06/20 04:58:39;;;;;;;2.17;1.97;;;;;;;26.50;56.05;98325.00;5092314;28;39877;-79
2021/06/20 05:01:08;;;;;;;1.23;1.20;;;;;;;26.55;56.04;98317.91;5091199;28;40866;-76
2021/06/20 05:03:36;;;;;;;1.40;1.30;;;;;;;26.57;55.71;98315.00;5109870;27;42491;-77
2021/06/20 05:06:04;;;;;;;1.47;1.37;;;;;;;26.56;55.67;98297.88;5108671;28;42940;-75
2021/06/20 05:08:32;;;;;;;3.00;2.37;;;;;;;26.69;55.50;98322.28;5107986;28;40061;-77
2021/06/20 05:11:00;;;;;;;1.80;1.70;;;;;;;26.74;54.75;98338.78;5108551;28;41393;-74
2021/06/20 05:13:28;;;;;;;1.40;1.30;;;;;;;26.81;54.85;98339.63;5107979;28;43923;-74
2021/06/20 05:15:55;;;;;;;1.47;1.37;;;;;;;26.88;54.81;98341.47;5109373;27;42848;-75
2021/06/20 05:18:25;;;;;;;1.30;1.20;;;;;;;26.86;54.80;98330.81;5109660;27;41341;-77
2021/06/20 05:20:53;;;;;;;2.03;1.57;;;;;;;26.88;54.48;98325.16;5108470;28;41745;-77
2021/06/20 05:23:21;;;;;;;4.60;1.67;;;;;;;27.00;54.49;98337.06;5104964;28;43232;-76
2021/06/20 05:25:49;;;;;;;1.60;1.33;;;;;;;27.13;54.02;98342.47;5107424;28;42649;-74
2021/06/20 05:28:17;;;;;;;1.70;1.33;;;;;;;27.25;53.83;98335.31;5107932;27;40392;-75
2021/06/20 05:30:46;;;;;;;1.80;1.70;;;;;;;27.30;53.49;98321.94;5105977;28;41131;-75
2021/06/20 05:33:14;;;;;;;1.97;1.87;;;;;;;27.36;53.49;98333.81;5107754;27;43106;-74
2021/06/20 05:35:44;;;;;;;2.73;2.47;;;;;;;27.31;53.28;98334.47;5106887;28;42999;-75
2021/06/20 05:38:12;;;;;;;1.43;1.33;;;;;;;27.27;53.60;98333.22;5123112;27;39853;-76
2021/06/20 05:40:41;;;;;;;1.63;1.40;;;;;;;27.20;53.16;98343.28;5107286;28;41604;-78
2021/06/20 05:43:09;;;;;;;1.53;1.43;;;;;;;27.28;52.97;98353.09;5108630;27;42510;-75
2021/06/20 05:45:37;;;;;;;1.20;1.10;;;;;;;27.41;53.09;98356.59;5108017;28;42191;-74
2021/06/20 05:48:05;;;;;;;1.60;1.50;;;;;;;27.60;52.67;98365.75;5109119;27;39838;-76
2021/06/20 05:50:33;;;;;;;1.43;1.00;;;;;;;27.67;52.20;98343.97;5115647;27;41828;-76
2021/06/20 05:53:02;;;;;;;1.67;1.57;;;;;;;27.91;52.02;98373.13;5115786;27;42664;-75
2021/06/20 05:55:30;;;;;;;1.10;1.00;;;;;;;28.03;51.47;98376.84;5115686;27;41122;-74
2021/06/20 05:57:57;;;;;;;1.60;1.50;;;;;;;28.33;51.60;98373.50;5114082;28;39897;-77
2021/06/20 06:00:25;;;;;;;1.40;1.30;;;;;;;28.51;50.94;98373.56;5114855;27;42191;-75
2021/06/20 06:02:53;;;;;;;0.97;0.93;;;;;;;28.58;51.27;98368.88;5114967;28;42418;-76
2021/06/20 06:05:21;;;;;;;1.83;1.20;;;;;;;28.57;50.74;98378.13;5096424;28;41306;-76
2021/06/20 06:07:48;;;;;;;0.93;0.93;;;;;;;28.50;50.81;98389.09;5097955;28;41336;-76
2021/06/20 06:10:18;;;;;;;2.23;1.17;;;;;;;28.43;50.61;98387.47;5113123;28;41642;-76
2021/06/20 06:12:46;;;;;;;1.70;1.60;;;;;;;28.29;50.60;98391.34;5114616;27;42869;-74
2021/06/20 06:15:14;;;;;;;1.20;0.93;;;;;;;28.23;51.17;98399.34;5113758;27;42175;-75
2021/06/20 06:17:42;;;;;;;1.33;1.10;;;;;;;28.14;51.02;98400.63;5112506;28;38938;-74
2021/06/20 06:20:11;;;;;;;0.90;0.90;;;;;;;28.07;51.21;98394.38;5095257;28;41142;-76
2021/06/20 06:22:39;;;;;;;1.73;1.63;;;;;;;28.05;51.57;98388.34;5108868;28;42612;-75
2021/06/20 06:25:08;;;;;;;1.30;1.20;;;;;;;28.18;51.28;98401.06;5110011;27;43066;-75
2021/06/20 06:27:37;;;;;;;1.20;1.10;;;;;;;28.43;50.98;98403.81;5111842;27;40693;-75
2021/06/20 06:30:06;;;;;;;1.33;1.03;;;;;;;28.63;50.69;98396.31;5109140;27;41742;-76
2021/06/20 06:32:33;;;;;;;1.17;1.07;;;;;;;28.83;49.93;98416.09;5109789;27;42758;-74
2021/06/20 06:35:01;;;;;;;0.90;0.90;;;;;;;29.00;48.75;98427.25;5108020;28;42870;-73
2021/06/20 06:37:29;;;;;;;0.70;0.70;;;;;;;29.13;48.36;98426.31;5109184;28;40504;-77
2021/06/20 06:39:56;;;;;;;1.83;1.73;;;;;;;29.41;47.83;98440.31;5110530;27;41588;-75
2021/06/20 06:42:26;;;;;;;1.33;1.23;;;;;;;29.55;47.04;98419.16;5111538;27;43146;-75
2021/06/20 06:44:57;;;;;;;1.10;0.93;;;;;;;29.77;46.53;98422.25;5109787;27;41920;-75
2021/06/20 06:47:25;;;;;;;1.10;1.10;;;;;;;30.20;45.11;98444.78;5110506;27;38637;-74
2021/06/20 06:49:52;;;;;;;1.10;1.00;;;;;;;30.36;44.54;98449.59;5111806;27;41667;-76
2021/06/20 06:52:21;;;;;;;3.10;1.33;;;;;;;30.33;43.93;98463.72;5110402;27;42514;-76
2021/06/20 06:54:51;;;;;;;1.37;0.90;;;;;;;30.17;44.13;98450.72;5110982;27;43094;-75
2021/06/20 06:57:19;;;;;;;1.00;0.90;;;;;;;30.16;43.82;98465.47;5103886;28;41748;-74
2021/06/20 06:59:47;;;;;;;1.27;1.27;;;;;;;30.07;42.95;98472.28;5087589;28;42878;-76
2021/06/20 07:02:16;;;;;;;1.13;1.13;;;;;;;30.02;43.60;98463.97;5084047;28;42247;-78
2021/06/20 07:04:44;;;;;;;0.80;0.80;;;;;;;30.02;42.68;98458.50;5087922;28;41965;-75
2021/06/20 07:07:12;;;;;;;0.60;0.60;;;;;;;30.04;42.92;98453.66;5104748;27;40021;-75
2021/06/20 07:09:40;;;;;;;0.87;0.70;;;;;;;30.06;42.57;98461.59;5087868;28;40533;-75
2021/06/20 07:12:08;;;;;;;0.87;0.87;;;;;;;30.17;42.75;98455.34;5106028;28;41831;-76
2021/06/20 07:14:37;;;;;;;1.23;1.13;;;;;;;30.32;42.64;98453.84;5104882;28;42944;-74
2021/06/20 07:17:05;;;;;;;0.70;0.70;;;;;;;30.46;42.88;98431.81;5104705;28;40531;-74
2021/06/20 07:19:35;;;;;;;1.77;1.27;;;;;;;30.62;41.98;98447.56;5107225;27;42438;-75
2021/06/20 07:22:03;;;;;;;1.23;0.80;;;;;;;30.78;41.73;98457.84;5105957;27;43310;-76
2021/06/20 07:24:31;;;;;;;0.53;0.53;;;;;;;30.93;41.36;98473.75;5107691;27;42850;-74
2021/06/20 07:26:59;;;;;;;0.93;0.93;;;;;;;31.07;40.41;98467.84;5107738;27;39930;-76
2021/06/20 07:29:26;;;;;;;1.20;1.10;;;;;;;31.28;40.30;98473.84;5105914;28;40842;-76
2021/06/20 07:31:54;;;;;;;2.40;0.97;;;;;;;31.49;39.74;98475.13;5106545;27;43273;-76
2021/06/20 07:34:22;;;;;;;0.80;0.80;;;;;;;31.62;38.67;98488.56;5105618;27;41544;-77
2021/06/20 07:36:52;;;;;;;1.00;1.00;;;;;;;31.67;39.76;98478.56;5105552;28;38282;-74
2021/06/20 07:39:20;;;;;;;1.13;1.03;;;;;;;31.86;39.18;98486.66;5105273;27;42374;-77
2021/06/20 07:41:47;;;;;;;1.90;0.90;;;;;;;32.26;38.61;98503.97;5105357;28;42158;-76
2021/06/20 07:44:15;;;;;;;1.00;1.00;;;;;;;32.95;37.57;98506.63;5104656;27;42062;-77
2021/06/20 07:46:43;;;;;;;0.70;0.67;;;;;;;34.03;36.25;98521.75;5107306;27;40515;-77
2021/06/20 07:49:12;;;;;;;0.93;0.90;;;;;;;34.96;34.87;98534.41;5105556;27;41557;-77
2021/06/20 07:51:40;;;;;;;1.07;0.97;;;;;;;35.57;34.29;98529.41;5087904;28;43302;-78
2021/06/20 07:54:09;;;;;;;0.80;0.80;;;;;;;36.26;33.09;98515.47;5105730;28;42289;-81
2021/06/20 07:56:37;;;;;;;0.77;0.77;;;;;;;37.01;31.74;98500.19;5104790;28;39719;-77
2021/06/20 07:59:05;;;;;;;1.37;1.00;;;;;;;38.12;30.74;98534.34;5106362;27;41540;-76
2021/06/20 08:01:32;;;;;;;0.93;0.83;;;;;;;38.73;30.31;98532.94;5106907;27;41643;-76
2021/06/20 08:04:00;;;;;;;1.33;1.23;;;;;;;38.16;30.85;98532.69;5105402;28;41475;-79
2021/06/20 08:06:28;;;;;;;1.63;1.53;;;;;;;37.99;30.95;98517.22;5105492;28;38872;-75
2021/06/20 08:08:56;;;;;;;1.10;1.10;;;;;;;37.74;31.33;98528.34;5107085;27;41360;-76
2021/06/20 08:11:26;;;;;;;0.93;0.93;;;;;;;37.05;32.18;98537.19;5105263;27;43217;-76
2021/06/20 08:13:56;;;;;;;1.20;1.17;;;;;;;36.58;32.53;98529.09;5105146;27;41998;-75
2021/06/20 08:16:25;;;;;;;1.20;1.10;;;;;;;37.70;31.55;98525.34;5119466;27;38825;-74
2021/06/20 08:18:53;;;;;;;1.57;1.40;;;;;;;38.51;30.22;98539.97;5107795;27;42454;-78
2021/06/20 08:21:23;;;;;;;0.90;0.90;;;;;;;38.24;30.22;98540.38;5117478;27;43406;-76
2021/06/20 08:23:51;;;;;;;1.43;1.07;;;;;;;38.57;29.77;98545.25;5107330;27;42473;-78
2021/06/20 08:26:19;;;;;;;0.80;0.80;;;;;;;39.29;28.58;98554.75;5107287;27;40240;-74
2021/06/20 08:28:48;;;;;;;1.10;1.00;;;;;;;40.11;27.72;98558.41;5104698;28;40529;-77
2021/06/20 08:31:16;;;;;;;1.60;1.50;;;;;;;39.83;27.75;98562.00;5102894;27;42391;-78
2021/06/20 08:33:44;;;;;;;0.80;0.80;;;;;;;38.74;28.75;98553.16;5106879;27;42066;-76
2021/06/20 08:36:12;;;;;;;0.80;0.80;;;;;;;38.16;29.30;98543.75;5104478;27;41425;-75
2021/06/20 08:38:39;;;;;;;0.90;0.90;;;;;;;38.40;28.88;98547.50;5107683;27;41293;-77
2021/06/20 08:41:07;;;;;;;1.10;1.00;;;;;;;38.96;28.12;98552.72;5100943;28;43377;-76
2021/06/20 08:43:34;;;;;;;1.63;1.00;;;;;;;39.49;27.65;98540.72;5106026;28;42432;-76
2021/06/20 08:46:04;;;;;;;0.88;0.88;;;;;;;40.69;26.15;98558.22;5105985;27;40473;-77
2021/06/20 08:48:33;;;;;;;0.77;0.77;;;;;;;41.70;24.90;98555.00;5106624;27;41421;-76
2021/06/20 08:51:01;;;;;;;1.00;1.00;;;;;;;42.25;24.29;98564.25;5104914;27;43427;-77
2021/06/20 08:53:29;;;;;;;1.42;1.27;;;;;;;42.37;23.59;98555.38;5106608;27;42181;-74
2021/06/20 08:55:57;;;;;;;1.10;0.98;;;;;;;42.56;23.96;98556.09;5105208;27;39816;-77
2021/06/20 08:58:27;;;;;;;0.70;0.70;;;;;;;42.97;23.10;98551.28;5121016;27;41517;-76
2021/06/20 09:00:56;;;;;;;0.90;0.90;;;;;;;42.81;23.02;98541.63;5104043;28;42486;-73
2021/06/20 09:03:26;;;;;;;1.10;1.00;;;;;;;42.51;23.41;98540.34;5104986;28;42218;-77
2021/06/20 09:06:01;;;;;;;1.35;1.25;;;;;;;42.57;23.69;98532.69;5104038;28;39340;-74
2021/06/20 09:08:30;;;;;;;0.85;0.85;;;;;;;42.85;23.22;98528.72;5120007;27;41622;-77
2021/06/20 09:10:59;;;;;;;0.90;0.90;;;;;;;42.73;23.08;98534.00;5105136;27;42505;-76
2021/06/20 09:13:34;;;;;;;0.90;0.90;;;;;;;42.99;22.89;98545.38;5105186;27;42148;-77
2021/06/20 09:16:03;;;;;;;0.88;0.88;;;;;;;42.91;22.73;98544.16;5104898;27;39970;-77
2021/06/20 09:18:35;;;;;;;0.95;0.95;;;;;;;42.75;22.27;98536.47;5103848;28;42077;-78
2021/06/20 09:21:09;;;;;;;0.82;0.82;;;;;;;43.08;22.22;98539.88;5104136;28;43325;-77
2021/06/20 09:23:40;;;;;;;0.80;0.80;;;;;;;43.72;21.98;98543.31;5105748;27;42009;-78
2021/06/20 09:26:07;;;;;;;0.60;0.60;;;;;;;43.77;21.40;98534.81;5086778;28;40805;-79
2021/06/20 09:28:36;;;;;;;0.70;0.70;;;;;;;43.42;21.56;98526.19;5104647;27;41480;-78
2021/06/20 09:31:07;;;;;;;0.95;0.95;;;;;;;42.68;22.30;98525.75;5104870;27;42218;-78
2021/06/20 09:33:38;;;;;;;0.70;0.70;;;;;;;41.56;22.97;98521.59;5104958;28;41272;-78
2021/06/20 09:36:06;;;;;;;0.80;0.80;;;;;;;40.64;24.56;98504.72;5104067;27;40518;-75
2021/06/20 09:38:35;;;;;;;1.60;0.73;;;;;;;40.13;24.46;98503.44;5104461;28;41245;-77
2021/06/20 09:41:05;;;;;;;0.80;0.80;;;;;;;39.83;24.49;98503.75;5103494;28;41682;-75
2021/06/20 09:43:33;;;;;;;0.93;0.93;;;;;;;39.44;25.22;98493.66;5105827;27;42205;-77
2021/06/20 09:46:03;;;;;;;0.50;0.50;;;;;;;38.80;25.46;98482.81;5103838;28;40610;-76
2021/06/20 09:48:31;;;;;;;0.60;0.60;;;;;;;37.96;26.81;98479.06;5103309;28;44915;-78
2021/06/20 09:51:12;;;;;;;0.67;0.67;;;;;;;37.25;28.47;98459.88;5102717;28;41872;-78
2021/06/20 09:53:43;;;;;;;0.90;0.67;;;;;;;36.62;29.66;98447.41;5104909;27;41958;-80
2021/06/20 09:56:22;;;;;;;0.60;0.60;;;;;;;36.07;30.21;98437.09;5102662;27;39305;-77
2021/06/20 09:58:58;;;;;;;0.90;0.90;;;;;;;35.53;30.02;98435.44;5102104;28;41607;-76
2021/06/20 10:01:28;;;;;;;0.60;0.60;;;;;;;35.00;30.66;98450.19;5107321;27;42706;-79
2021/06/20 10:03:57;;;;;;;0.73;0.73;;;;;;;34.58;31.93;98445.41;5105188;28;42534;-79
2021/06/20 10:06:27;;;;;;;0.80;0.80;;;;;;;34.34;32.84;98435.84;5106495;28;39772;-77
2021/06/20 10:08:54;;;;;;;0.63;0.63;;;;;;;34.19;32.88;98435.63;5104689;27;42038;-77
2021/06/20 10:11:23;;;;;;;1.20;1.20;;;;;;;34.08;33.09;98428.38;5104374;28;42968;-78
2021/06/20 10:13:51;;;;;;;0.70;0.70;;;;;;;34.01;33.16;98422.22;5105144;27;42041;-77
2021/06/20 10:16:24;;;;;;;0.50;0.50;;;;;;;34.02;34.06;98419.22;5088770;28;40759;-78
2021/06/20 10:18:55;;;;;;;0.70;0.70;;;;;;;34.07;33.78;98426.72;5106784;27;41676;-78
2021/06/20 10:21:34;;;;;;;0.77;0.77;;;;;;;34.07;33.24;98433.03;5107320;27;42401;-78
2021/06/20 10:24:11;;;;;;;0.70;0.70;;;;;;;34.29;32.94;98438.53;5106622;27;42009;-77
2021/06/20 10:26:42;;;;;;;0.50;0.50;;;;;;;34.48;32.15;98450.84;5107246;27;39391;-80
2021/06/20 10:29:18;;;;;;;2.00;0.97;;;;;;;34.75;32.73;98441.69;5107224;27;42437;-79
2021/06/20 10:31:47;;;;;;;0.47;0.47;;;;;;;35.03;32.75;98446.91;5108131;27;42414;-79
2021/06/20 10:34:20;;;;;;;0.70;0.70;;;;;;;35.37;32.54;98446.63;5106598;28;42606;-77
2021/06/20 10:36:52;;;;;;;0.70;0.70;;;;;;;35.64;31.60;98448.16;5110131;27;40009;-78
2021/06/20 10:39:20;;;;;;;0.70;0.70;;;;;;;35.84;30.80;98453.00;5110227;27;42639;-77
2021/06/20 10:41:49;;;;;;;1.37;1.27;;;;;;;35.93;30.86;98451.38;5112518;27;43308;-77
2021/06/20 10:44:17;;;;;;;1.23;0.80;;;;;;;35.92;30.08;98455.22;5100818;27;42969;-76
2021/06/20 10:46:55;;;;;;;1.83;0.80;;;;;;;36.04;29.75;98459.66;5107133;28;40983;-83
2021/06/20 10:49:23;;;;;;;0.77;0.50;;;;;;;36.22;29.60;98454.53;5095869;28;42559;-77
2021/06/20 10:51:52;;;;;;;0.90;0.90;;;;;;;36.59;29.38;98450.75;5111614;27;43330;-80
2021/06/20 10:54:25;;;;;;;0.73;0.73;;;;;;;36.53;28.81;98463.69;5110295;28;42132;-76
2021/06/20 10:56:57;;;;;;;0.80;0.80;;;;;;;36.42;29.20;98453.75;5090690;28;39300;-81
2021/06/20 10:59:25;;;;;;;0.67;0.67;;;;;;;36.48;29.22;98452.63;5095103;28;41675;-76
2021/06/20 11:01:53;;;;;;;0.60;0.60;;;;;;;36.75;29.57;98446.91;5112923;27;43751;-84
2021/06/20 11:04:21;;;;;;;0.60;0.60;;;;;;;36.77;28.15;98460.44;5108949;28;42775;-74
2021/06/20 11:06:55;;;;;;;0.87;0.87;;;;;;;36.85;28.53;98457.13;5112748;27;40606;-75
2021/06/20 11:09:24;;;;;;;1.23;0.70;;;;;;;37.03;28.37;98453.81;5110924;28;40715;-77
2021/06/20 11:11:54;;;;;;;0.90;0.90;;;;;;;36.92;27.96;98460.44;5110447;28;43526;-76
2021/06/20 11:14:22;;;;;;;0.70;0.70;;;;;;;36.58;28.52;98441.63;5091296;28;42174;-81
2021/06/20 11:16:51;;;;;;;2.03;1.00;;;;;;;36.29;28.38;98454.25;5110930;28;39894;-82
2021/06/20 11:19:23;;;;;;;0.67;0.67;;;;;;;36.06;28.84;98438.19;5109748;28;42520;-81
2021/06/20 11:21:55;;;;;;;0.70;0.70;;;;;;;35.84;29.22;98441.13;5111931;27;42401;-82
2021/06/20 11:24:27;;;;;;;0.50;0.50;;;;;;;35.56;30.29;98442.34;5096255;27;42250;-78
2021/06/20 11:26:57;;;;;;;0.40;0.40;;;;;;;35.43;30.65;98440.06;5091372;28;39843;-78
2021/06/20 11:29:27;;;;;;;1.33;1.23;;;;;;;35.24;30.31;98432.19;5093468;28;41632;-76
2021/06/20 11:31:57;;;;;;;0.60;0.60;;;;;;;35.18;30.01;98438.78;5111931;27;42482;-80
2021/06/20 11:34:26;;;;;;;0.70;0.70;;;;;;;35.06;31.28;98435.38;5109854;27;42627;-77
2021/06/20 11:36:55;;;;;;;1.07;0.53;;;;;;;35.01;32.07;98420.75;5111116;28;40749;-78
2021/06/20 11:39:22;;;;;;;1.43;1.10;;;;;;;34.86;30.94;98427.00;5110231;27;45858;-80
2021/06/20 11:41:52;;;;;;;0.53;0.53;;;;;;;34.62;31.95;98418.19;5109822;28;42312;-81